sensor_id;sensor_type;location;lat;lon;timestamp;pressure;altitude;pressure_sealevel;temperature;humidity
50464;BME280;62167;38.552;-121.478;2022-12-07T00:01:07;101774.00;;;12.37;66.39
50464;BME280;62167;38.552;-121.478;2022-12-07T00:03:34;101772.03;;;12.29;65.38
50464;BME280;62167;38.552;-121.478;2022-12-07T00:06:00;101773.19;;;12.27;65.80
50464;BME280;62167;38.552;-121.478;2022-12-07T00:08:26;101777.31;;;12.21;66.84
50464;BME280;62167;38.552;-121.478;2022-12-07T00:10:52;101781.63;;;12.14;65.43
50464;BME280;62167;38.552;-121.478;2022-12-07T00:13:18;101770.38;;;12.18;66.09
50464;BME280;62167;38.552;-121.478;2022-12-07T00:15:44;101768.28;;;12.12;66.09
50464;BME280;62167;38.552;-121.478;2022-12-07T00:18:10;101773.53;;;12.14;67.46
50464;BME280;62167;38.552;-121.478;2022-12-07T00:20:36;101773.41;;;12.06;67.17
50464;BME280;62167;38.552;-121.478;2022-12-07T00:23:01;101773.13;;;12.09;67.49
50464;BME280;62167;38.552;-121.478;2022-12-07T00:25:27;101767.38;;;11.94;66.02
50464;BME280;62167;38.552;-121.478;2022-12-07T00:27:53;101772.50;;;11.97;66.95
50464;BME280;62167;38.552;-121.478;2022-12-07T00:30:22;101768.66;;;11.90;66.87
50464;BME280;62167;38.552;-121.478;2022-12-07T00:32:49;101770.22;;;11.92;67.11
50464;BME280;62167;38.552;-121.478;2022-12-07T00:35:15;101770.50;;;11.89;67.18
50464;BME280;62167;38.552;-121.478;2022-12-07T00:37:41;101778.47;;;11.91;67.91
50464;BME280;62167;38.552;-121.478;2022-12-07T00:40:07;101772.66;;;11.86;67.57
50464;BME280;62167;38.552;-121.478;2022-12-07T00:42:33;101781.50;;;11.68;67.60
50464;BME280;62167;38.552;-121.478;2022-12-07T00:44:58;101777.69;;;11.61;67.66
50464;BME280;62167;38.552;-121.478;2022-12-07T00:47:24;101774.16;;;11.61;68.16
50464;BME280;62167;38.552;-121.478;2022-12-07T00:49:50;101776.84;;;11.61;68.31
50464;BME280;62167;38.552;-121.478;2022-12-07T00:52:16;101776.88;;;11.51;68.53
50464;BME280;62167;38.552;-121.478;2022-12-07T00:54:42;101774.19;;;11.41;68.11
50464;BME280;62167;38.552;-121.478;2022-12-07T00:57:08;101782.41;;;11.40;68.73
50464;BME280;62167;38.552;-121.478;2022-12-07T00:59:33;101775.75;;;11.34;69.03
50464;BME280;62167;38.552;-121.478;2022-12-07T01:01:59;101778.47;;;11.25;68.91
50464;BME280;62167;38.552;-121.478;2022-12-07T01:04:25;101769.00;;;11.21;68.25
50464;BME280;62167;38.552;-121.478;2022-12-07T01:06:51;101775.22;;;11.21;68.56
50464;BME280;62167;38.552;-121.478;2022-12-07T01:09:17;101777.06;;;11.21;69.17
50464;BME280;62167;38.552;-121.478;2022-12-07T01:11:44;101787.44;;;11.15;68.83
50464;BME280;62167;38.552;-121.478;2022-12-07T01:14:11;101779.63;;;11.12;69.09
50464;BME280;62167;38.552;-121.478;2022-12-07T01:16:38;101789.84;;;11.09;69.47
50464;BME280;62167;38.552;-121.478;2022-12-07T01:19:04;101796.25;;;11.08;69.60
50464;BME280;62167;38.552;-121.478;2022-12-07T01:21:31;101792.25;;;11.02;70.10
50464;BME280;62167;38.552;-121.478;2022-12-07T01:24:01;101794.28;;;11.00;69.97
50464;BME280;62167;38.552;-121.478;2022-12-07T01:26:27;101795.66;;;10.95;70.45
50464;BME280;62167;38.552;-121.478;2022-12-07T01:28:53;101802.19;;;10.92;70.58
50464;BME280;62167;38.552;-121.478;2022-12-07T01:31:24;101803.19;;;10.91;70.42
50464;BME280;62167;38.552;-121.478;2022-12-07T01:33:51;101802.47;;;10.79;70.82
50464;BME280;62167;38.552;-121.478;2022-12-07T01:36:21;101794.81;;;10.75;70.65
50464;BME280;62167;38.552;-121.478;2022-12-07T01:38:50;101802.59;;;10.78;71.26
50464;BME280;62167;38.552;-121.478;2022-12-07T01:41:18;101798.19;;;10.67;71.79
50464;BME280;62167;38.552;-121.478;2022-12-07T01:46:28;101792.09;;;10.55;72.30
50464;BME280;62167;38.552;-121.478;2022-12-07T01:48:54;101793.09;;;10.54;71.84
50464;BME280;62167;38.552;-121.478;2022-12-07T01:51:20;101801.59;;;10.50;72.20
50464;BME280;62167;38.552;-121.478;2022-12-07T01:53:46;101788.38;;;10.47;72.48
50464;BME280;62167;38.552;-121.478;2022-12-07T01:56:19;101801.81;;;10.37;72.67
50464;BME280;62167;38.552;-121.478;2022-12-07T01:58:46;101792.06;;;10.36;72.90
50464;BME280;62167;38.552;-121.478;2022-12-07T02:01:12;101789.34;;;10.36;72.67
50464;BME280;62167;38.552;-121.478;2022-12-07T02:03:40;101786.94;;;10.33;73.32
50464;BME280;62167;38.552;-121.478;2022-12-07T02:06:06;101797.16;;;10.29;73.10
50464;BME280;62167;38.552;-121.478;2022-12-07T02:08:32;101792.88;;;10.27;73.60
50464;BME280;62167;38.552;-121.478;2022-12-07T02:10:59;101792.41;;;10.22;73.80
50464;BME280;62167;38.552;-121.478;2022-12-07T02:13:26;101798.03;;;10.19;73.79
50464;BME280;62167;38.552;-121.478;2022-12-07T02:18:31;101802.53;;;9.99;74.52
50464;BME280;62167;38.552;-121.478;2022-12-07T02:21:11;101804.03;;;9.92;74.74
50464;BME280;62167;38.552;-121.478;2022-12-07T02:29:09;101803.28;;;9.80;75.94
50464;BME280;62167;38.552;-121.478;2022-12-07T02:31:37;101810.19;;;9.73;75.92
50464;BME280;62167;38.552;-121.478;2022-12-07T02:34:09;101811.97;;;9.62;76.01
50464;BME280;62167;38.552;-121.478;2022-12-07T02:36:43;101815.00;;;9.48;76.42
50464;BME280;62167;38.552;-121.478;2022-12-07T02:39:18;101810.72;;;9.46;76.98
50464;BME280;62167;38.552;-121.478;2022-12-07T02:41:51;101820.50;;;9.47;76.96
50464;BME280;62167;38.552;-121.478;2022-12-07T02:44:20;101821.56;;;9.34;77.66
50464;BME280;62167;38.552;-121.478;2022-12-07T02:46:54;101823.47;;;9.23;77.93
50464;BME280;62167;38.552;-121.478;2022-12-07T02:49:22;101832.16;;;9.15;78.12
50464;BME280;62167;38.552;-121.478;2022-12-07T02:51:49;101828.38;;;9.18;78.40
50464;BME280;62167;38.552;-121.478;2022-12-07T02:54:16;101832.53;;;9.10;78.25
50464;BME280;62167;38.552;-121.478;2022-12-07T02:59:36;101832.34;;;9.02;78.65
50464;BME280;62167;38.552;-121.478;2022-12-07T03:07:22;101835.84;;;8.82;79.25
50464;BME280;62167;38.552;-121.478;2022-12-07T03:10:03;101838.06;;;8.77;79.59
50464;BME280;62167;38.552;-121.478;2022-12-07T03:12:39;101835.38;;;8.77;79.95
50464;BME280;62167;38.552;-121.478;2022-12-07T03:15:11;101837.59;;;8.72;79.64
50464;BME280;62167;38.552;-121.478;2022-12-07T03:17:39;101850.03;;;8.62;80.32
50464;BME280;62167;38.552;-121.478;2022-12-07T03:20:07;101847.47;;;8.60;80.20
50464;BME280;62167;38.552;-121.478;2022-12-07T03:22:34;101849.56;;;8.56;80.67
50464;BME280;62167;38.552;-121.478;2022-12-07T03:25:03;101848.22;;;8.51;80.63
50464;BME280;62167;38.552;-121.478;2022-12-07T03:27:40;101841.78;;;8.53;80.91
50464;BME280;62167;38.552;-121.478;2022-12-07T03:30:17;101849.06;;;8.51;81.23
50464;BME280;62167;38.552;-121.478;2022-12-07T03:32:45;101852.88;;;8.49;80.81
50464;BME280;62167;38.552;-121.478;2022-12-07T03:37:49;101856.91;;;8.43;80.82
50464;BME280;62167;38.552;-121.478;2022-12-07T03:40:19;101853.38;;;8.43;81.08
50464;BME280;62167;38.552;-121.478;2022-12-07T03:42:48;101853.75;;;8.38;80.98
50464;BME280;62167;38.552;-121.478;2022-12-07T03:45:14;101862.84;;;8.36;80.81
50464;BME280;62167;38.552;-121.478;2022-12-07T03:50:26;101858.84;;;8.30;81.47
50464;BME280;62167;38.552;-121.478;2022-12-07T03:52:58;101861.41;;;8.20;81.79
50464;BME280;62167;38.552;-121.478;2022-12-07T03:55:31;101870.69;;;8.16;81.72
50464;BME280;62167;38.552;-121.478;2022-12-07T03:57:59;101874.47;;;8.14;81.94
50464;BME280;62167;38.552;-121.478;2022-12-07T04:00:26;101874.47;;;8.14;81.67
50464;BME280;62167;38.552;-121.478;2022-12-07T04:02:52;101874.47;;;8.14;81.48
50464;BME280;62167;38.552;-121.478;2022-12-07T04:05:18;101870.22;;;8.11;81.92
50464;BME280;62167;38.552;-121.478;2022-12-07T04:07:44;101871.53;;;8.05;82.15
50464;BME280;62167;38.552;-121.478;2022-12-07T04:10:10;101871.78;;;8.02;82.65
50464;BME280;62167;38.552;-121.478;2022-12-07T04:12:36;101877.38;;;7.99;82.27
50464;BME280;62167;38.552;-121.478;2022-12-07T04:15:02;101875.81;;;7.97;82.32
50464;BME280;62167;38.552;-121.478;2022-12-07T04:17:28;101875.91;;;7.95;82.02
50464;BME280;62167;38.552;-121.478;2022-12-07T04:19:54;101869.81;;;7.93;82.09
50464;BME280;62167;38.552;-121.478;2022-12-07T04:22:20;101877.16;;;7.91;82.28
50464;BME280;62167;38.552;-121.478;2022-12-07T04:24:46;101870.44;;;7.86;82.12
50464;BME280;62167;38.552;-121.478;2022-12-07T04:27:12;101877.72;;;7.84;81.98
50464;BME280;62167;38.552;-121.478;2022-12-07T04:29:37;101878.94;;;7.79;82.50
50464;BME280;62167;38.552;-121.478;2022-12-07T04:32:03;101888.09;;;7.77;82.64
50464;BME280;62167;38.552;-121.478;2022-12-07T04:34:29;101887.59;;;7.72;83.11
50464;BME280;62167;38.552;-121.478;2022-12-07T04:36:55;101881.72;;;7.67;82.86
50464;BME280;62167;38.552;-121.478;2022-12-07T04:41:47;101889.75;;;7.56;83.01
50464;BME280;62167;38.552;-121.478;2022-12-07T04:44:13;101890.81;;;7.53;83.03
50464;BME280;62167;38.552;-121.478;2022-12-07T04:46:40;101893.72;;;7.50;83.66
50464;BME280;62167;38.552;-121.478;2022-12-07T04:49:06;101892.38;;;7.44;83.59
50464;BME280;62167;38.552;-121.478;2022-12-07T04:51:32;101896.28;;;7.40;83.52
50464;BME280;62167;38.552;-121.478;2022-12-07T04:53:57;101897.56;;;7.35;83.54
50464;BME280;62167;38.552;-121.478;2022-12-07T04:56:24;101894.16;;;7.33;83.72
50464;BME280;62167;38.552;-121.478;2022-12-07T04:58:51;101894.50;;;7.28;83.89
50464;BME280;62167;38.552;-121.478;2022-12-07T05:01:17;101892.28;;;7.22;84.19
50464;BME280;62167;38.552;-121.478;2022-12-07T05:03:43;101891.16;;;7.13;84.26
50464;BME280;62167;38.552;-121.478;2022-12-07T05:06:10;101887.75;;;7.11;84.56
50464;BME280;62167;38.552;-121.478;2022-12-07T05:08:36;101895.03;;;7.09;84.55
50464;BME280;62167;38.552;-121.478;2022-12-07T05:11:02;101888.94;;;7.07;84.45
50464;BME280;62167;38.552;-121.478;2022-12-07T05:13:28;101888.22;;;7.05;84.82
50464;BME280;62167;38.552;-121.478;2022-12-07T05:15:54;101891.22;;;7.00;84.92
50464;BME280;62167;38.552;-121.478;2022-12-07T05:18:20;101892.94;;;7.01;84.56
50464;BME280;62167;38.552;-121.478;2022-12-07T05:20:46;101903.00;;;6.98;84.61
50464;BME280;62167;38.552;-121.478;2022-12-07T05:23:12;101897.13;;;6.93;84.93
50464;BME280;62167;38.552;-121.478;2022-12-07T05:25:38;101908.09;;;6.90;84.96
50464;BME280;62167;38.552;-121.478;2022-12-07T05:28:04;101902.09;;;6.86;84.74
50464;BME280;62167;38.552;-121.478;2022-12-07T05:30:30;101906.16;;;6.79;85.27
50464;BME280;62167;38.552;-121.478;2022-12-07T05:32:56;101906.09;;;6.81;84.94
50464;BME280;62167;38.552;-121.478;2022-12-07T05:35:22;101906.53;;;6.74;85.54
50464;BME280;62167;38.552;-121.478;2022-12-07T05:37:48;101905.91;;;6.71;85.40
50464;BME280;62167;38.552;-121.478;2022-12-07T05:40:14;101901.38;;;6.71;85.19
50464;BME280;62167;38.552;-121.478;2022-12-07T05:42:40;101907.28;;;6.64;85.47
50464;BME280;62167;38.552;-121.478;2022-12-07T05:45:06;101898.41;;;6.63;85.48
50464;BME280;62167;38.552;-121.478;2022-12-07T05:47:32;101905.59;;;6.63;85.82
50464;BME280;62167;38.552;-121.478;2022-12-07T05:49:58;101907.53;;;6.61;85.45
50464;BME280;62167;38.552;-121.478;2022-12-07T05:52:24;101909.56;;;6.57;85.64
50464;BME280;62167;38.552;-121.478;2022-12-07T05:54:50;101912.56;;;6.53;85.81
50464;BME280;62167;38.552;-121.478;2022-12-07T05:57:16;101912.38;;;6.43;85.96
50464;BME280;62167;38.552;-121.478;2022-12-07T05:59:41;101917.00;;;6.41;86.26
50464;BME280;62167;38.552;-121.478;2022-12-07T06:02:09;101913.66;;;6.37;86.64
50464;BME280;62167;38.552;-121.478;2022-12-07T06:04:38;101916.47;;;6.36;86.64
50464;BME280;62167;38.552;-121.478;2022-12-07T06:07:05;101914.97;;;6.32;86.46
50464;BME280;62167;38.552;-121.478;2022-12-07T06:09:30;101910.06;;;6.26;86.50
50464;BME280;62167;38.552;-121.478;2022-12-07T06:11:56;101915.28;;;6.27;86.53
50464;BME280;62167;38.552;-121.478;2022-12-07T06:14:41;101917.09;;;6.27;86.70
50464;BME280;62167;38.552;-121.478;2022-12-07T06:17:07;101920.00;;;6.23;86.51
50464;BME280;62167;38.552;-121.478;2022-12-07T06:19:33;101915.72;;;6.21;86.47
50464;BME280;62167;38.552;-121.478;2022-12-07T06:21:59;101924.72;;;6.20;86.44
50464;BME280;62167;38.552;-121.478;2022-12-07T06:24:25;101924.91;;;6.17;86.39
50464;BME280;62167;38.552;-121.478;2022-12-07T06:26:51;101927.72;;;6.15;86.46
50464;BME280;62167;38.552;-121.478;2022-12-07T06:29:17;101928.16;;;6.09;86.60
50464;BME280;62167;38.552;-121.478;2022-12-07T06:31:43;101926.31;;;6.10;86.63
50464;BME280;62167;38.552;-121.478;2022-12-07T06:34:11;101933.50;;;6.09;86.47
50464;BME280;62167;38.552;-121.478;2022-12-07T06:36:37;101931.34;;;6.02;86.62
50464;BME280;62167;38.552;-121.478;2022-12-07T06:39:03;101929.53;;;6.02;86.55
50464;BME280;62167;38.552;-121.478;2022-12-07T06:41:29;101923.56;;;5.98;86.99
50464;BME280;62167;38.552;-121.478;2022-12-07T06:43:55;101925.69;;;5.93;86.75
50464;BME280;62167;38.552;-121.478;2022-12-07T06:46:21;101928.34;;;5.93;86.67
50464;BME280;62167;38.552;-121.478;2022-12-07T06:48:47;101928.53;;;5.90;86.89
50464;BME280;62167;38.552;-121.478;2022-12-07T06:51:12;101930.53;;;5.87;86.49
50464;BME280;62167;38.552;-121.478;2022-12-07T06:53:38;101928.97;;;5.84;86.88
50464;BME280;62167;38.552;-121.478;2022-12-07T06:56:04;101930.00;;;5.82;86.91
50464;BME280;62167;38.552;-121.478;2022-12-07T06:58:30;101924.03;;;5.78;86.70
50464;BME280;62167;38.552;-121.478;2022-12-07T07:00:56;101923.38;;;5.75;87.22
50464;BME280;62167;38.552;-121.478;2022-12-07T07:03:22;101922.72;;;5.71;87.08
50464;BME280;62167;38.552;-121.478;2022-12-07T07:05:48;101926.47;;;5.68;87.58
50464;BME280;62167;38.552;-121.478;2022-12-07T07:08:14;101925.81;;;5.65;87.57
50464;BME280;62167;38.552;-121.478;2022-12-07T07:10:40;101926.97;;;5.61;87.42
50464;BME280;62167;38.552;-121.478;2022-12-07T07:13:06;101927.09;;;5.59;87.16
50464;BME280;62167;38.552;-121.478;2022-12-07T07:15:32;101920.66;;;5.62;87.29
50464;BME280;62167;38.552;-121.478;2022-12-07T07:17:58;101929.88;;;5.58;87.60
50464;BME280;62167;38.552;-121.478;2022-12-07T07:20:24;101929.88;;;5.58;87.62
50464;BME280;62167;38.552;-121.478;2022-12-07T07:22:50;101929.88;;;5.58;87.53
50464;BME280;62167;38.552;-121.478;2022-12-07T07:25:16;101931.25;;;5.51;87.47
50464;BME280;62167;38.552;-121.478;2022-12-07T07:27:42;101926.97;;;5.48;87.60
50464;BME280;62167;38.552;-121.478;2022-12-07T07:30:08;101925.47;;;5.44;87.76
50464;BME280;62167;38.552;-121.478;2022-12-07T07:32:34;101933.47;;;5.44;87.30
50464;BME280;62167;38.552;-121.478;2022-12-07T07:35:00;101929.47;;;5.37;88.24
50464;BME280;62167;38.552;-121.478;2022-12-07T07:37:26;101929.47;;;5.37;87.87
50464;BME280;62167;38.552;-121.478;2022-12-07T07:39:51;101932.25;;;5.35;87.56
50464;BME280;62167;38.552;-121.478;2022-12-07T07:42:17;101930.84;;;5.30;88.07
50464;BME280;62167;38.552;-121.478;2022-12-07T07:44:43;101924.56;;;5.31;87.88
50464;BME280;62167;38.552;-121.478;2022-12-07T07:47:09;101924.66;;;5.29;87.97
50464;BME280;62167;38.552;-121.478;2022-12-07T07:49:35;101919.50;;;5.26;87.77
50464;BME280;62167;38.552;-121.478;2022-12-07T07:52:01;101922.19;;;5.26;87.71
50464;BME280;62167;38.552;-121.478;2022-12-07T07:54:27;101927.63;;;5.25;88.07
50464;BME280;62167;38.552;-121.478;2022-12-07T07:56:52;101924.22;;;5.23;87.98
50464;BME280;62167;38.552;-121.478;2022-12-07T07:59:18;101926.03;;;5.22;87.82
50464;BME280;62167;38.552;-121.478;2022-12-07T08:01:44;101932.31;;;5.21;87.44
50464;BME280;62167;38.552;-121.478;2022-12-07T08:04:10;101928.78;;;5.20;87.37
50464;BME280;62167;38.552;-121.478;2022-12-07T08:06:36;101935.94;;;5.20;87.60
50464;BME280;62167;38.552;-121.478;2022-12-07T08:09:02;101943.41;;;5.15;88.58
50464;BME280;62167;38.552;-121.478;2022-12-07T08:11:30;101930.06;;;5.15;88.27
50464;BME280;62167;38.552;-121.478;2022-12-07T08:13:56;101935.69;;;5.10;88.23
50464;BME280;62167;38.552;-121.478;2022-12-07T08:16:22;101932.16;;;5.10;88.32
50464;BME280;62167;38.552;-121.478;2022-12-07T08:18:47;101934.09;;;5.08;88.38
50464;BME280;62167;38.552;-121.478;2022-12-07T08:21:14;101940.59;;;5.04;88.72
50464;BME280;62167;38.552;-121.478;2022-12-07T08:23:40;101943.16;;;5.05;88.48
50464;BME280;62167;38.552;-121.478;2022-12-07T08:26:07;101944.41;;;5.00;88.56
50464;BME280;62167;38.552;-121.478;2022-12-07T08:28:33;101947.09;;;5.00;88.29
50464;BME280;62167;38.552;-121.478;2022-12-07T08:31:03;101945.25;;;5.00;88.58
50464;BME280;62167;38.552;-121.478;2022-12-07T08:33:29;101946.22;;;4.99;88.01
50464;BME280;62167;38.552;-121.478;2022-12-07T08:35:55;101941.00;;;4.98;88.05
50464;BME280;62167;38.552;-121.478;2022-12-07T08:38:25;101945.56;;;4.95;88.16
50464;BME280;62167;38.552;-121.478;2022-12-07T08:40:55;101937.56;;;4.95;88.03
50464;BME280;62167;38.552;-121.478;2022-12-07T08:43:21;101956.47;;;4.92;88.20
50464;BME280;62167;38.552;-121.478;2022-12-07T08:45:48;101955.59;;;4.92;87.74
50464;BME280;62167;38.552;-121.478;2022-12-07T08:48:15;101951.19;;;4.91;88.42
50464;BME280;62167;38.552;-121.478;2022-12-07T08:50:47;101955.91;;;4.87;88.58
50464;BME280;62167;38.552;-121.478;2022-12-07T08:53:13;101953.31;;;4.86;87.62
50464;BME280;62167;38.552;-121.478;2022-12-07T08:55:39;101950.84;;;4.83;87.99
50464;BME280;62167;38.552;-121.478;2022-12-07T08:58:05;101954.66;;;4.79;88.43
50464;BME280;62167;38.552;-121.478;2022-12-07T09:00:31;101961.16;;;4.75;88.20
50464;BME280;62167;38.552;-121.478;2022-12-07T09:02:57;101956.88;;;4.72;87.64
50464;BME280;62167;38.552;-121.478;2022-12-07T09:05:23;101957.91;;;4.69;87.63
50464;BME280;62167;38.552;-121.478;2022-12-07T09:07:50;101958.41;;;4.62;88.46
50464;BME280;62167;38.552;-121.478;2022-12-07T09:10:17;101961.84;;;4.64;87.93
50464;BME280;62167;38.552;-121.478;2022-12-07T09:12:43;101962.91;;;4.61;87.98
50464;BME280;62167;38.552;-121.478;2022-12-07T09:15:08;101964.78;;;4.59;87.83
50464;BME280;62167;38.552;-121.478;2022-12-07T09:17:34;101968.59;;;4.55;88.05
50464;BME280;62167;38.552;-121.478;2022-12-07T09:20:03;101963.66;;;4.49;88.27
50464;BME280;62167;38.552;-121.478;2022-12-07T09:22:29;101955.66;;;4.49;88.09
50464;BME280;62167;38.552;-121.478;2022-12-07T09:24:56;101962.69;;;4.50;87.97
50464;BME280;62167;38.552;-121.478;2022-12-07T09:27:22;101963.75;;;4.48;88.05
50464;BME280;62167;38.552;-121.478;2022-12-07T09:29:48;101965.75;;;4.44;88.05
50464;BME280;62167;38.552;-121.478;2022-12-07T09:32:14;101967.66;;;4.42;88.93
50464;BME280;62167;38.552;-121.478;2022-12-07T09:34:40;101979.47;;;4.38;88.59
50464;BME280;62167;38.552;-121.478;2022-12-07T09:37:06;101972.50;;;4.35;88.23
50464;BME280;62167;38.552;-121.478;2022-12-07T09:39:32;101970.78;;;4.34;88.86
50464;BME280;62167;38.552;-121.478;2022-12-07T09:41:58;101972.72;;;4.32;89.32
50464;BME280;62167;38.552;-121.478;2022-12-07T09:44:25;101979.06;;;4.30;88.35
50464;BME280;62167;38.552;-121.478;2022-12-07T09:46:52;101980.13;;;4.27;88.29
50464;BME280;62167;38.552;-121.478;2022-12-07T09:49:19;101978.31;;;4.28;88.36
50464;BME280;62167;38.552;-121.478;2022-12-07T09:51:46;101976.50;;;4.28;88.81
50464;BME280;62167;38.552;-121.478;2022-12-07T09:54:13;101985.38;;;4.29;88.34
50464;BME280;62167;38.552;-121.478;2022-12-07T09:56:39;101987.94;;;4.30;88.06
50464;BME280;62167;38.552;-121.478;2022-12-07T09:59:05;101991.66;;;4.28;88.61
50464;BME280;62167;38.552;-121.478;2022-12-07T10:01:31;101996.31;;;4.24;88.89
50464;BME280;62167;38.552;-121.478;2022-12-07T10:06:27;101995.84;;;4.18;88.82
50464;BME280;62167;38.552;-121.478;2022-12-07T10:08:52;101994.19;;;4.15;89.29
50464;BME280;62167;38.552;-121.478;2022-12-07T10:11:18;101994.41;;;4.12;88.98
50464;BME280;62167;38.552;-121.478;2022-12-07T10:13:46;102001.63;;;4.10;88.52
50464;BME280;62167;38.552;-121.478;2022-12-07T10:16:29;102002.59;;;4.09;88.33
50464;BME280;62167;38.552;-121.478;2022-12-07T10:18:57;102000.69;;;4.11;88.88
50464;BME280;62167;38.552;-121.478;2022-12-07T10:21:42;101999.34;;;4.04;88.29
50464;BME280;62167;38.552;-121.478;2022-12-07T10:24:24;101996.88;;;4.01;88.76
50464;BME280;62167;38.552;-121.478;2022-12-07T10:26:51;102001.41;;;3.99;88.81
50464;BME280;62167;38.552;-121.478;2022-12-07T10:29:21;102000.66;;;3.97;88.92
50464;BME280;62167;38.552;-121.478;2022-12-07T10:31:52;102000.66;;;3.97;88.35
50464;BME280;62167;38.552;-121.478;2022-12-07T10:34:27;102003.22;;;3.98;88.85
50464;BME280;62167;38.552;-121.478;2022-12-07T10:37:06;102000.66;;;3.97;88.01
50464;BME280;62167;38.552;-121.478;2022-12-07T10:39:40;102002.47;;;3.96;88.31
50464;BME280;62167;38.552;-121.478;2022-12-07T10:42:08;102006.94;;;3.96;88.85
50464;BME280;62167;38.552;-121.478;2022-12-07T10:44:40;102005.41;;;3.92;88.55
50464;BME280;62167;38.552;-121.478;2022-12-07T10:57:56;102013.88;;;3.68;89.47
50464;BME280;62167;38.552;-121.478;2022-12-07T11:00:28;102011.91;;;3.72;89.02
50464;BME280;62167;38.552;-121.478;2022-12-07T11:03:15;102002.53;;;3.64;88.64
50464;BME280;62167;38.552;-121.478;2022-12-07T11:05:54;102006.25;;;3.62;88.83
50464;BME280;62167;38.552;-121.478;2022-12-07T11:08:42;101999.38;;;3.58;89.22
50464;BME280;62167;38.552;-121.478;2022-12-07T11:11:46;102001.94;;;3.59;89.09
50464;BME280;62167;38.552;-121.478;2022-12-07T11:14:05;102002.91;;;3.58;88.49
50464;BME280;62167;38.552;-121.478;2022-12-07T11:27:40;102005.50;;;3.44;88.72
50464;BME280;62167;38.552;-121.478;2022-12-07T11:41:05;101996.41;;;3.32;88.78
50464;BME280;62167;38.552;-121.478;2022-12-07T11:46:26;102008.97;;;3.30;89.36
50464;BME280;62167;38.552;-121.478;2022-12-07T11:49:04;102004.66;;;3.28;89.28
50464;BME280;62167;38.552;-121.478;2022-12-07T11:51:34;102007.44;;;3.26;89.83
50464;BME280;62167;38.552;-121.478;2022-12-07T11:54:03;102017.13;;;3.27;89.13
50464;BME280;62167;38.552;-121.478;2022-12-07T11:56:31;102017.47;;;3.21;89.17
50464;BME280;62167;38.552;-121.478;2022-12-07T11:59:04;102023.75;;;3.20;89.45
50464;BME280;62167;38.552;-121.478;2022-12-07T12:06:29;102018.59;;;3.17;88.75
50464;BME280;62167;38.552;-121.478;2022-12-07T12:09:19;102027.34;;;3.19;89.19
50464;BME280;62167;38.552;-121.478;2022-12-07T12:11:59;102030.88;;;3.20;88.74
50464;BME280;62167;38.552;-121.478;2022-12-07T12:14:37;102035.41;;;3.18;88.54
50464;BME280;62167;38.552;-121.478;2022-12-07T12:22:39;102040.91;;;2.99;89.10
50464;BME280;62167;38.552;-121.478;2022-12-07T12:25:07;102053.59;;;2.94;88.98
50464;BME280;62167;38.552;-121.478;2022-12-07T12:27:41;102051.88;;;2.93;88.85
50464;BME280;62167;38.552;-121.478;2022-12-07T12:33:01;102049.41;;;2.90;88.66
50464;BME280;62167;38.552;-121.478;2022-12-07T12:35:32;102046.91;;;2.86;89.30
50464;BME280;62167;38.552;-121.478;2022-12-07T12:40:42;102053.44;;;2.81;89.09
50464;BME280;62167;38.552;-121.478;2022-12-07T12:46:22;102052.31;;;2.85;89.42
50464;BME280;62167;38.552;-121.478;2022-12-07T12:48:38;102056.00;;;2.82;89.08
50464;BME280;62167;38.552;-121.478;2022-12-07T12:54:10;102061.03;;;2.71;89.60
50464;BME280;62167;38.552;-121.478;2022-12-07T12:59:33;102062.84;;;2.71;89.49
50464;BME280;62167;38.552;-121.478;2022-12-07T13:02:15;102064.66;;;2.70;89.65
50464;BME280;62167;38.552;-121.478;2022-12-07T13:04:51;102056.75;;;2.69;89.15
50464;BME280;62167;38.552;-121.478;2022-12-07T13:10:02;102056.16;;;2.64;89.80
50464;BME280;62167;38.552;-121.478;2022-12-07T13:12:28;102065.13;;;2.61;89.16
50464;BME280;62167;38.552;-121.478;2022-12-07T13:14:55;102070.44;;;2.61;89.50
50464;BME280;62167;38.552;-121.478;2022-12-07T13:20:00;102077.56;;;2.60;89.99
50464;BME280;62167;38.552;-121.478;2022-12-07T13:25:18;102069.69;;;2.59;89.69
50464;BME280;62167;38.552;-121.478;2022-12-07T13:27:47;102077.06;;;2.54;89.54
50464;BME280;62167;38.552;-121.478;2022-12-07T13:30:19;102080.00;;;2.48;89.62
50464;BME280;62167;38.552;-121.478;2022-12-07T13:32:55;102095.97;;;2.48;89.69
50464;BME280;62167;38.552;-121.478;2022-12-07T13:35:28;102088.84;;;2.48;90.30
50464;BME280;62167;38.552;-121.478;2022-12-07T13:37:54;102080.84;;;2.48;90.07
50464;BME280;62167;38.552;-121.478;2022-12-07T13:40:21;102086.34;;;2.45;89.66
50464;BME280;62167;38.552;-121.478;2022-12-07T13:42:47;102085.66;;;2.42;89.92
50464;BME280;62167;38.552;-121.478;2022-12-07T13:47:54;102099.97;;;2.39;89.93
50464;BME280;62167;38.552;-121.478;2022-12-07T13:50:25;102095.66;;;2.37;89.83
50464;BME280;62167;38.552;-121.478;2022-12-07T13:52:54;102101.94;;;2.36;89.93
50464;BME280;62167;38.552;-121.478;2022-12-07T13:55:21;102110.69;;;2.38;89.76
50464;BME280;62167;38.552;-121.478;2022-12-07T13:57:47;102110.84;;;2.34;90.07
50464;BME280;62167;38.552;-121.478;2022-12-07T14:00:16;102112.66;;;2.34;89.63
50464;BME280;62167;38.552;-121.478;2022-12-07T14:02:59;102119.91;;;2.30;89.93
50464;BME280;62167;38.552;-121.478;2022-12-07T14:05:26;102121.88;;;2.27;89.81
50464;BME280;62167;38.552;-121.478;2022-12-07T14:07:57;102119.28;;;2.25;89.50
50464;BME280;62167;38.552;-121.478;2022-12-07T14:10:32;102128.97;;;2.26;89.59
50464;BME280;62167;38.552;-121.478;2022-12-07T14:12:59;102126.50;;;2.23;89.42